createdAt,value
2022-09-28T00:01:27.086Z,7.00
2022-09-28T00:04:04.843Z,10.40
2022-09-28T00:06:33.080Z,7.15
2022-09-28T00:09:01.869Z,9.20
2022-09-28T00:11:29.222Z,8.23
2022-09-28T00:14:03.365Z,7.72
2022-09-28T00:16:35.497Z,8.00
2022-09-28T00:19:09.912Z,9.18
2022-09-28T00:21:44.599Z,10.07
2022-09-28T00:24:27.477Z,9.43
2022-09-28T00:26:57.346Z,8.07
2022-09-28T00:29:34.840Z,10.05
2022-09-28T00:32:06.881Z,9.20
2022-09-28T00:34:37.517Z,7.78
2022-09-28T00:37:06.451Z,7.90
2022-09-28T00:39:33.233Z,10.02
2022-09-28T00:42:01.166Z,8.30
2022-09-28T00:44:35.922Z,8.30
2022-09-28T00:47:14.882Z,10.52
2022-09-28T00:49:48.451Z,8.48
2022-09-28T00:52:22.536Z,8.40
2022-09-28T00:54:53.457Z,9.55
2022-09-28T00:57:28.024Z,6.55
2022-09-28T01:02:51.417Z,9.05
2022-09-28T01:05:25.681Z,9.68
2022-09-28T01:07:56.968Z,8.10
2022-09-28T01:10:25.204Z,12.68
2022-09-28T01:12:55.580Z,9.30
2022-09-28T01:15:26.813Z,7.85
2022-09-28T01:18:03.475Z,11.13
2022-09-28T01:21:17.042Z,9.73
2022-09-28T01:23:54.697Z,7.30
2022-09-28T01:26:51.055Z,8.18
2022-09-28T01:29:48.713Z,7.93
2022-09-28T01:32:21.909Z,8.88
2022-09-28T01:35:05.621Z,7.07
2022-09-28T01:37:53.717Z,7.20
2022-09-28T01:40:24.749Z,9.43
2022-09-28T01:43:06.648Z,8.35
2022-09-28T01:46:01.083Z,6.80
2022-09-28T01:48:38.095Z,8.13
2022-09-28T01:51:18.559Z,8.23
2022-09-28T01:53:53.325Z,8.07
2022-09-28T01:56:31.973Z,10.40
2022-09-28T01:59:29.641Z,8.02
2022-09-28T02:02:29.571Z,8.23
2022-09-28T02:05:17.519Z,8.43
2022-09-28T02:08:23.080Z,9.82
2022-09-28T02:11:14.267Z,9.98
2022-09-28T02:14:11.253Z,12.68
2022-09-28T02:16:48.314Z,7.45
2022-09-28T02:19:19.170Z,7.97
2022-09-28T02:22:23.336Z,9.73
2022-09-28T02:25:09.804Z,8.50
2022-09-28T02:27:53.952Z,8.68
2022-09-28T02:30:47.137Z,9.77
2022-09-28T02:33:26.742Z,8.60
2022-09-28T02:35:55.608Z,9.48
2022-09-28T02:38:26.655Z,9.35
2022-09-28T02:47:05.068Z,9.80
2022-09-28T02:49:48.909Z,12.80
2022-09-28T02:52:36.917Z,9.98
2022-09-28T02:55:11.149Z,13.30
2022-09-28T03:01:37.217Z,8.02
2022-09-28T03:04:18.072Z,8.35
2022-09-28T03:07:16.266Z,10.90
2022-09-28T03:12:48.012Z,11.63
2022-09-28T03:15:26.649Z,9.73
2022-09-28T03:17:55.795Z,10.02
2022-09-28T03:20:31.021Z,9.85
2022-09-28T03:25:57.118Z,8.27
2022-09-28T03:28:25.815Z,10.52
2022-09-28T03:30:53.154Z,11.73
2022-09-28T03:33:45.095Z,12.48
2022-09-28T03:36:15.003Z,12.02
2022-09-28T03:39:09.039Z,13.70
2022-09-28T03:41:37.036Z,15.32
2022-09-28T03:44:29.065Z,19.77
2022-09-28T03:46:57.089Z,23.02
2022-09-28T03:49:25.057Z,22.60
2022-09-28T03:51:53.121Z,19.15
2022-09-28T03:54:26.162Z,18.35
2022-09-28T03:56:53.142Z,17.85
2022-09-28T03:59:21.198Z,20.90
2022-09-28T04:01:50.291Z,20.55
2022-09-28T04:04:17.624Z,21.55
2022-09-28T04:06:47.025Z,19.20
2022-09-28T04:09:15.217Z,21.95
2022-09-28T04:12:03.346Z,23.35
2022-09-28T04:14:58.312Z,19.75
2022-09-28T04:17:35.484Z,19.38
2022-09-28T04:20:12.537Z,18.27
2022-09-28T04:22:45.044Z,19.50
2022-09-28T04:25:13.136Z,16.45
2022-09-28T04:27:59.356Z,24.63
2022-09-28T04:33:19.081Z,19.13
2022-09-28T04:35:47.040Z,15.77
2022-09-28T04:38:15.026Z,26.63
2022-09-28T04:41:07.539Z,25.95
2022-09-28T04:44:00.072Z,22.25
2022-09-28T04:46:27.161Z,20.67
2022-09-28T04:49:15.179Z,22.55
2022-09-28T04:51:57.033Z,16.83
2022-09-28T04:54:25.062Z,15.73
2022-09-28T04:56:58.373Z,15.05
2022-09-28T04:59:31.026Z,25.42
2022-09-28T05:02:04.095Z,17.83
2022-09-28T05:05:07.523Z,19.45
2022-09-28T05:07:52.484Z,20.45
2022-09-28T05:10:20.999Z,24.83
2022-09-28T05:12:54.017Z,22.50
2022-09-28T05:15:21.086Z,20.67
2022-09-28T05:17:49.018Z,21.42
2022-09-28T05:20:36.456Z,24.58
2022-09-28T05:23:03.058Z,32.80
2022-09-28T05:26:00.040Z,21.63
2022-09-28T05:28:31.434Z,21.30
2022-09-28T05:31:35.143Z,30.02
2022-09-28T05:34:21.202Z,23.08
2022-09-28T05:36:54.294Z,29.20
2022-09-28T05:45:06.423Z,21.65
2022-09-28T05:47:39.792Z,21.42
2022-09-28T05:50:33.789Z,22.80
2022-09-28T05:53:12.556Z,22.38
2022-09-28T05:55:41.057Z,19.98
2022-09-28T05:58:09.605Z,21.48
2022-09-28T06:00:42.953Z,22.38
2022-09-28T06:03:15.094Z,20.88
2022-09-28T06:05:43.158Z,23.80
2022-09-28T06:08:11.559Z,29.48
2022-09-28T06:10:43.262Z,25.13
2022-09-28T06:16:10.906Z,24.48
2022-09-28T06:19:04.025Z,24.65
2022-09-28T06:21:39.046Z,26.60
2022-09-28T06:24:07.165Z,38.53
2022-09-28T06:26:42.180Z,25.88
2022-09-28T06:29:20.468Z,26.77
2022-09-28T06:31:49.068Z,30.40
2022-09-28T06:34:19.260Z,29.15
2022-09-28T06:36:47.818Z,28.33
2022-09-28T06:39:17.267Z,29.10
2022-09-28T06:41:45.050Z,27.90
2022-09-28T06:44:39.424Z,26.95
2022-09-28T06:47:25.095Z,25.15
2022-09-28T06:50:21.212Z,26.95
2022-09-28T06:53:06.940Z,26.20
2022-09-28T06:55:51.592Z,26.17
2022-09-28T06:58:20.679Z,19.92
2022-09-28T07:00:51.855Z,23.40
2022-09-28T07:03:21.625Z,24.38
2022-09-28T07:05:59.317Z,22.23
2022-09-28T07:12:26.296Z,19.33
2022-09-28T07:15:10.890Z,23.95
2022-09-28T07:17:54.315Z,18.45
2022-09-28T07:20:44.738Z,21.75
2022-09-28T07:23:19.813Z,18.83
2022-09-28T07:26:09.003Z,25.83
2022-09-28T07:29:03.405Z,19.35
2022-09-28T07:31:35.161Z,22.17
2022-09-28T07:34:27.232Z,18.58
2022-09-28T07:37:13.437Z,22.77
2022-09-28T07:42:51.168Z,21.10
2022-09-28T07:45:20.749Z,21.35
2022-09-28T07:47:54.330Z,20.48
2022-09-28T07:50:33.087Z,21.40
2022-09-28T07:53:20.287Z,17.90
2022-09-28T07:56:09.360Z,20.05
2022-09-28T07:59:01.103Z,20.90
2022-09-28T08:01:41.177Z,24.27
2022-09-28T08:04:11.263Z,21.15
2022-09-28T08:06:41.197Z,20.90
2022-09-28T08:09:12.616Z,22.83
2022-09-28T08:12:15.036Z,28.90
2022-09-28T08:15:02.601Z,23.73
2022-09-28T08:17:48.365Z,28.30
2022-09-28T08:20:39.653Z,22.30
2022-09-28T08:23:09.804Z,26.20
2022-09-28T08:25:41.304Z,25.13
2022-09-28T08:28:21.868Z,26.15
2022-09-28T08:30:51.800Z,24.05
2022-09-28T08:33:39.194Z,28.23
2022-09-28T08:36:25.277Z,26.13
2022-09-28T08:39:01.198Z,26.25
2022-09-28T08:42:16.067Z,24.90
2022-09-28T08:45:10.882Z,25.42
2022-09-28T08:51:44.640Z,28.30
2022-09-28T08:54:50.272Z,23.00
2022-09-28T08:57:32.186Z,22.85
2022-09-28T09:00:01.914Z,25.80
2022-09-28T09:02:39.714Z,25.02
2022-09-28T09:05:19.962Z,24.83
2022-09-28T09:08:39.418Z,23.30
2022-09-28T09:12:10.151Z,27.08
2022-09-28T09:15:06.999Z,22.75
2022-09-28T09:17:47.630Z,24.20
2022-09-28T09:20:53.990Z,20.88
2022-09-28T09:23:49.766Z,21.45
2022-09-28T09:26:26.658Z,29.67
2022-09-28T09:29:17.993Z,24.85
2022-09-28T09:32:20.027Z,26.10
2022-09-28T09:35:28.287Z,26.60
2022-09-28T09:38:40.167Z,23.20
2022-09-28T09:41:30.105Z,27.45
2022-09-28T09:44:33.581Z,29.38
2022-09-28T09:47:26.455Z,29.20
2022-09-28T09:50:08.310Z,27.23
2022-09-28T09:52:47.823Z,28.00
2022-09-28T09:55:39.384Z,27.73
2022-09-28T09:58:53.413Z,29.15
2022-09-28T10:04:46.842Z,29.77
2022-09-28T10:07:46.205Z,24.55
2022-09-28T10:10:37.998Z,26.48
2022-09-28T10:13:11.272Z,23.10
2022-09-28T10:15:41.336Z,28.17
2022-09-28T10:18:24.043Z,23.40
2022-09-28T10:21:18.220Z,25.52
2022-09-28T10:24:02.703Z,26.10
2022-09-28T10:26:44.267Z,24.83
2022-09-28T10:29:20.603Z,25.50
2022-09-28T10:31:51.076Z,21.88
2022-09-28T10:34:37.069Z,21.35
2022-09-28T10:37:13.865Z,22.38
2022-09-28T10:40:40.468Z,25.67
2022-09-28T10:43:18.166Z,20.38
2022-09-28T10:45:47.484Z,23.00
2022-09-28T10:48:21.361Z,23.17
2022-09-28T10:51:18.711Z,25.23
2022-09-28T10:54:02.538Z,23.40
2022-09-28T10:56:46.194Z,21.95
2022-09-28T10:59:37.839Z,20.27
2022-09-28T11:02:33.610Z,19.92
2022-09-28T11:05:28.060Z,17.42
2022-09-28T11:08:03.851Z,21.73
2022-09-28T11:10:39.369Z,19.00
2022-09-28T11:13:15.162Z,18.08
2022-09-28T11:15:50.217Z,15.82
2022-09-28T11:18:31.528Z,15.85
2022-09-28T11:24:19.925Z,17.40
2022-09-28T11:27:00.075Z,20.17
2022-09-28T11:29:45.406Z,18.58
2022-09-28T11:32:22.939Z,14.90
2022-09-28T11:35:19.743Z,19.98
2022-09-28T11:38:02.705Z,17.80
2022-09-28T11:41:09.211Z,16.38
2022-09-28T11:43:53.243Z,14.80
2022-09-28T11:46:33.905Z,15.63
2022-09-28T11:49:32.762Z,15.02
2022-09-28T11:52:14.732Z,14.05
2022-09-28T11:55:28.542Z,17.35
2022-09-28T11:58:04.658Z,15.95
2022-09-28T12:03:50.522Z,11.73
2022-09-28T12:06:31.415Z,12.10
2022-09-28T12:09:09.392Z,15.77
2022-09-28T12:12:03.866Z,14.32
2022-09-28T12:14:46.426Z,13.23
2022-09-28T12:17:25.835Z,12.55
2022-09-28T12:20:30.508Z,14.30
2022-09-28T12:23:09.871Z,13.80
2022-09-28T12:25:57.889Z,13.40
2022-09-28T12:28:37.123Z,9.38
2022-09-28T12:31:16.922Z,12.25
2022-09-28T12:33:48.379Z,9.77
2022-09-28T12:36:30.676Z,10.40
2022-09-28T12:39:46.651Z,7.03
2022-09-28T12:42:54.616Z,8.77
2022-09-28T12:53:02.261Z,6.05
2022-09-28T12:55:41.741Z,6.68
2022-09-28T12:58:28.727Z,4.63
2022-09-28T13:01:30.809Z,5.32
2022-09-28T13:04:11.467Z,5.28
2022-09-28T13:07:08.559Z,4.53
2022-09-28T13:10:24.493Z,4.38
2022-09-28T13:13:29.115Z,3.33
2022-09-28T13:16:36.869Z,5.13
2022-09-28T13:19:16.846Z,4.43
2022-09-28T13:21:56.525Z,4.50
2022-09-28T13:24:33.855Z,3.70
2022-09-28T13:27:18.575Z,3.03
2022-09-28T13:29:49.793Z,2.30
2022-09-28T13:32:18.368Z,3.38
2022-09-28T13:34:51.221Z,4.38
2022-09-28T13:37:25.637Z,2.75
2022-09-28T13:39:58.141Z,6.53
2022-09-28T13:42:47.518Z,4.32
2022-09-28T13:45:21.137Z,2.55
2022-09-28T13:48:16.327Z,3.80
2022-09-28T13:51:11.748Z,1.80
2022-09-28T13:54:06.814Z,2.97
2022-09-28T13:56:57.892Z,3.33
2022-09-28T13:59:29.791Z,4.53
2022-09-28T14:02:28.576Z,2.42
2022-09-28T14:05:06.072Z,3.70
2022-09-28T14:07:36.112Z,2.88
2022-09-28T14:10:18.066Z,2.65
2022-09-28T14:12:51.272Z,2.05
2022-09-28T14:15:28.960Z,3.38
2022-09-28T14:18:12.536Z,4.43
2022-09-28T14:21:07.120Z,2.05
2022-09-28T14:24:01.881Z,2.80
2022-09-28T14:26:48.005Z,3.22
2022-09-28T14:29:28.676Z,2.05
2022-09-28T14:35:26.199Z,4.25
2022-09-28T14:38:17.439Z,1.77
2022-09-28T14:41:31.452Z,3.47
2022-09-28T14:44:02.493Z,3.15
2022-09-28T14:46:43.623Z,2.78
2022-09-28T14:49:17.470Z,2.65
2022-09-28T14:51:48.024Z,1.95
2022-09-28T14:54:24.818Z,1.60
2022-09-28T14:57:06.879Z,5.47
2022-09-28T14:59:49.546Z,3.53
2022-09-28T15:02:33.014Z,6.05
2022-09-28T15:05:33.766Z,3.58
2022-09-28T15:08:01.872Z,5.18
2022-09-28T15:10:58.024Z,3.40
2022-09-28T15:14:10.874Z,3.25
2022-09-28T15:16:39.132Z,2.40
2022-09-28T15:19:23.651Z,3.38
2022-09-28T15:21:51.288Z,3.92
2022-09-28T15:24:40.577Z,4.65
2022-09-28T15:27:18.954Z,4.45
2022-09-28T15:32:56.709Z,3.25
2022-09-28T15:35:31.856Z,4.22
2022-09-28T15:37:59.115Z,4.00
2022-09-28T15:40:39.418Z,5.07
2022-09-28T15:43:32.901Z,3.88
2022-09-28T15:46:18.347Z,4.55
2022-09-28T15:48:52.754Z,3.20
2022-09-28T15:51:27.989Z,3.05
2022-09-28T15:53:59.570Z,3.60
2022-09-28T15:56:28.641Z,4.00
2022-09-28T15:59:15.268Z,3.63
2022-09-28T16:04:45.461Z,6.57
2022-09-28T16:07:13.030Z,4.35
2022-09-28T16:10:00.930Z,4.03
2022-09-28T16:12:40.860Z,5.47
2022-09-28T16:15:21.356Z,6.28
2022-09-28T16:17:57.818Z,3.58
2022-09-28T16:26:35.730Z,5.38
2022-09-28T16:29:09.700Z,3.60
2022-09-28T16:31:37.908Z,4.80
2022-09-28T16:34:11.740Z,3.88
2022-09-28T16:37:31.158Z,5.03
2022-09-28T16:39:59.032Z,3.05
2022-09-28T16:42:28.021Z,4.30
2022-09-28T16:45:03.884Z,5.57
2022-09-28T16:47:39.652Z,3.58
2022-09-28T16:50:07.768Z,3.50
2022-09-28T16:52:56.812Z,5.47
2022-09-28T16:55:43.129Z,5.57
2022-09-28T16:58:44.021Z,4.93
2022-09-28T17:01:12.550Z,7.65
2022-09-28T17:03:46.640Z,6.72
2022-09-28T17:06:16.667Z,7.53
2022-09-28T17:08:45.233Z,7.18
2022-09-28T17:11:24.531Z,6.25
2022-09-28T17:13:59.064Z,6.20
2022-09-28T17:16:57.637Z,8.00
2022-09-28T17:19:29.844Z,5.88
2022-09-28T17:22:03.407Z,5.15
2022-09-28T17:24:56.823Z,4.70
2022-09-28T17:27:25.056Z,7.60
2022-09-28T17:29:53.101Z,5.82
2022-09-28T17:32:25.240Z,5.65
2022-09-28T17:35:06.651Z,5.90
2022-09-28T17:37:45.315Z,5.90
2022-09-28T17:40:28.326Z,5.05
2022-09-28T17:42:57.560Z,7.07
2022-09-28T17:45:28.457Z,3.80
2022-09-28T17:47:55.680Z,4.72
2022-09-28T17:50:25.956Z,7.32
2022-09-28T17:52:54.098Z,7.00
2022-09-28T17:55:28.664Z,7.60
2022-09-28T17:57:58.337Z,10.45
2022-09-28T18:00:27.781Z,8.57
2022-09-28T18:03:01.473Z,12.75
2022-09-28T18:05:30.301Z,17.65
2022-09-28T18:07:58.986Z,15.70
2022-09-28T18:10:27.600Z,24.30
2022-09-28T18:13:21.035Z,34.05
2022-09-28T18:15:53.156Z,23.48
2022-09-28T18:18:22.415Z,23.13
2022-09-28T18:20:54.161Z,18.42
2022-09-28T18:23:21.144Z,22.40
2022-09-28T18:25:49.239Z,24.98
2022-09-28T18:28:17.321Z,24.60
2022-09-28T18:30:50.444Z,22.25
2022-09-28T18:33:19.121Z,16.65
2022-09-28T18:35:54.630Z,14.70
2022-09-28T18:38:23.081Z,15.10
2022-09-28T18:40:51.109Z,14.73
2022-09-28T18:43:48.855Z,21.38
2022-09-28T18:46:18.240Z,17.63
2022-09-28T18:48:45.101Z,16.85
2022-09-28T18:51:16.575Z,19.98
2022-09-28T18:53:45.265Z,13.40
2022-09-28T18:56:19.661Z,12.50
2022-09-28T18:58:48.057Z,12.88
2022-09-28T19:01:35.440Z,12.82
2022-09-28T19:04:06.400Z,11.85
2022-09-28T19:06:34.925Z,13.60
2022-09-28T19:09:05.714Z,13.00
2022-09-28T19:11:41.165Z,11.50
2022-09-28T19:17:05.658Z,12.60
2022-09-28T19:19:59.050Z,12.60
2022-09-28T19:22:27.138Z,11.73
2022-09-28T19:25:00.539Z,11.05
2022-09-28T19:27:29.082Z,14.73
2022-09-28T19:29:57.060Z,14.23
2022-09-28T19:32:25.074Z,12.02
2022-09-28T19:34:53.047Z,15.05
2022-09-28T19:37:46.665Z,13.88
2022-09-28T19:40:15.236Z,14.00
2022-09-28T19:42:43.105Z,17.73
2022-09-28T19:48:03.237Z,15.07
2022-09-28T19:50:31.800Z,16.15
2022-09-28T19:53:01.576Z,12.35
2022-09-28T19:55:41.240Z,14.73
2022-09-28T19:58:13.059Z,12.52
2022-09-28T20:00:41.171Z,11.38
2022-09-28T20:03:13.254Z,11.60
2022-09-28T20:08:44.109Z,14.23
2022-09-28T20:11:13.031Z,16.10
2022-09-28T20:13:41.158Z,15.30
2022-09-28T20:16:11.740Z,14.82
2022-09-28T20:18:43.594Z,11.60
2022-09-28T20:21:18.161Z,10.80
2022-09-28T20:23:51.386Z,14.35
2022-09-28T20:26:19.616Z,14.40
2022-09-28T20:29:13.259Z,11.13
2022-09-28T20:31:41.684Z,14.02
2022-09-28T20:34:09.776Z,13.48
2022-09-28T20:36:37.038Z,12.85
2022-09-28T20:39:05.057Z,13.57
2022-09-28T20:41:36.518Z,16.95
2022-09-28T20:44:06.467Z,15.85
2022-09-28T20:46:35.890Z,15.25
2022-09-28T20:49:04.049Z,15.20
2022-09-28T20:51:31.954Z,17.08
2022-09-28T20:53:59.693Z,17.15
2022-09-28T20:56:37.394Z,17.42
2022-09-28T20:59:07.867Z,14.82
2022-09-28T21:01:35.461Z,13.52
2022-09-28T21:04:04.759Z,14.88
2022-09-28T21:06:42.014Z,16.40
2022-09-28T21:12:03.242Z,15.40
2022-09-28T21:14:31.204Z,17.42
2022-09-28T21:17:24.883Z,18.98
2022-09-28T21:19:53.075Z,17.80
2022-09-28T21:22:21.033Z,15.63
2022-09-28T21:24:49.059Z,16.08
2022-09-28T21:27:17.062Z,16.73
2022-09-28T21:29:45.052Z,17.48
2022-09-28T21:32:37.068Z,18.05
2022-09-28T21:35:05.540Z,17.60
2022-09-28T21:37:33.212Z,20.20
2022-09-28T21:40:02.530Z,17.85
2022-09-28T21:42:31.040Z,18.73
2022-09-28T21:44:59.631Z,17.23
2022-09-28T21:47:27.067Z,17.98
2022-09-28T21:49:55.118Z,19.52
2022-09-28T21:52:23.157Z,19.63
2022-09-28T21:54:51.093Z,21.50
2022-09-28T21:57:19.052Z,19.27
2022-09-28T21:59:47.406Z,22.95
2022-09-28T22:02:15.077Z,21.55
2022-09-28T22:04:43.085Z,20.50
2022-09-28T22:07:11.075Z,18.88
2022-09-28T22:09:39.311Z,17.92
2022-09-28T22:12:11.745Z,19.17
2022-09-28T22:14:50.319Z,19.48
2022-09-28T22:17:17.222Z,19.40
2022-09-28T22:22:37.041Z,24.42
2022-09-28T22:25:10.508Z,19.67
2022-09-28T22:27:37.276Z,19.83
2022-09-28T22:30:05.577Z,21.52
2022-09-28T22:32:33.094Z,20.10
2022-09-28T22:35:01.172Z,17.88
2022-09-28T22:37:33.545Z,18.23
2022-09-28T22:40:25.362Z,20.77
2022-09-28T22:43:17.261Z,18.98
2022-09-28T22:45:45.576Z,18.52
2022-09-28T22:48:13.373Z,18.33
2022-09-28T22:50:51.197Z,20.05
2022-09-28T22:53:19.296Z,18.10
2022-09-28T22:55:47.085Z,14.57
2022-09-28T22:58:15.038Z,21.40
2022-09-28T23:00:48.318Z,17.25
2022-09-28T23:03:20.540Z,20.20
2022-09-28T23:05:55.945Z,15.63
2022-09-28T23:08:28.727Z,17.13
2022-09-28T23:10:57.084Z,17.27
2022-09-28T23:13:25.285Z,20.55
2022-09-28T23:16:05.242Z,15.40
2022-09-28T23:18:36.058Z,16.92
2022-09-28T23:21:11.223Z,19.40
2022-09-28T23:26:33.118Z,15.52
2022-09-28T23:29:01.214Z,15.75
2022-09-28T23:31:33.195Z,14.82
2022-09-28T23:34:06.529Z,16.80
2022-09-28T23:36:40.255Z,17.35
2022-09-28T23:39:07.065Z,20.60
2022-09-28T23:41:35.118Z,15.50
2022-09-28T23:44:03.415Z,17.48
2022-09-28T23:46:31.825Z,19.17
2022-09-28T23:48:59.052Z,14.38
2022-09-28T23:51:27.173Z,15.68
2022-09-28T23:53:55.114Z,14.38
2022-09-28T23:56:23.263Z,16.50
2022-09-28T23:58:51.130Z,16.23
